Skip Navigation Links
NOAA logo - Click to go to the NOAA homepage
NOAA's National Weather Service
Alaska Aviation Weather Unit
  NWS logo - Click to go to the NWS homepage
Left Navbar Graphic     08 AKDT = 16 GMT

   
NOAA is celebrating 200 years of science, service, and stewardship. Visit the NOAA 200th celebration Web site to learn more.
USA.gov is the U.S. Government's official Web portal to all Federal, state and local government Web resources and services.
Facebook
NWS on Facebook

Important Change Regarding the AAWU Web Presence

 

Over the last several months, the AAWU has been working to navigate its webpages to a nationally supported server. Security, as well as other needs, have necessitated the change.  In the process, we have made an effort to enhance the functionality of our website, as well as some of our products. As of June 20, 2017, aawu.arh.noaa.gov will be discontinued. The new AAWU web address is weather.gov/aawu. It is now live and will run in-parallel with the old site until it is discontinued. Please send any feedback or questions regarding the new webpages to nws.ar.aawu.webauthors@noaa.gov.  Thank you for your patience during this time of transition.
AAWU Home :: Display TAF Add Bookmark
TAF PABE 291136Z 2912/3012 34005KT P6SM SCT035 OVC045
     FM291500 VRB05KT P6SM SCT040 BKN050
     FM292200 24008KT P6SM SCT050 BKN070
     FM300600 20005KT P6SM SCT060 BKN100=

METAR PABE 291053Z 34007KT 10SM FEW049 FEW070 06/05 A2978 RMK AO2 SLP084 T00610050 $= METAR PABE 291153Z 35006KT 10SM FEW050 FEW070 05/04 A2979 RMK AO2 SLP087 60002 70005 T00500044 10094 20050 53006 $= METAR PABE 291253Z 35004KT 10SM FEW050 FEW070 04/04 A2978 RMK AO2 SLP088 T00390039 $= METAR PABE 291353Z 00000KT 10SM FEW050 FEW100 04/04 A2979 RMK AO2 SLP088 T00440039 $= METAR PABE 291453Z 00000KT 10SM FEW050 FEW120 FEW200 04/04 A2979 RMK AO2 SLP087 T00440039 55000 $= METAR PABE 291553Z 13003KT 10SM FEW060 SCT150 06/04 A2980 RMK AO2 SLP091 T00610044 $=
 Alaska TAF Map

NOAA's National Weather Service
Alaska Aviation Weather Unit
6930 Sand Lake Road
Anchorage, AK 99502-1845
Disclaimer
Credits
Glossary
Privacy Policy
About Us
Career Opportunities
Contact AAWU Internet Services Site last modified: April, 17th 2012